Time;durP1;ratioP1;P1;durP2;ratioP2;P2;SDS_P1;SDS_P2;PMS_P1;PMS_P2;Temp;Humidity;BMP_temperature;BMP_pressure;BME280_temperature;BME280_humidity;BME280_pressure;Samples;Min_cycle;Max_cycle;Signal;HPM_P1;HPM_P2
2023/04/23 00:01:42;;;;;;;9.30;6.50;;;;;;;8.39;56.41;96351.75;109206;1266;25463;-83
2023/04/23 00:04:20;;;;;;;10.00;7.00;;;;;;;8.46;56.16;96352.52;109241;1272;22495;-83
2023/04/23 00:06:52;;;;;;;11.10;7.30;;;;;;;8.65;56.19;96353.55;109222;1266;24946;-83
2023/04/23 00:09:30;;;;;;;14.60;7.40;;;;;;;8.95;55.94;96351.42;109279;1250;22619;-83
2023/04/23 00:12:02;;;;;;;11.00;6.70;;;;;;;9.29;55.52;96346.71;109252;1266;23958;-84
2023/04/23 00:14:34;;;;;;;9.90;6.80;;;;;;;9.45;55.12;96351.77;109266;1265;24388;-84
2023/04/23 00:17:06;;;;;;;10.50;6.50;;;;;;;9.47;54.78;96347.11;109069;1273;81270;-84
2023/04/23 00:19:40;;;;;;;10.20;6.70;;;;;;;9.54;54.45;96344.13;109250;1270;22560;-84
2023/04/23 00:22:15;;;;;;;10.90;7.30;;;;;;;9.66;54.24;96350.48;109147;1266;22907;-84
2023/04/23 00:24:46;;;;;;;9.30;7.10;;;;;;;9.71;53.78;96347.95;109221;1265;22521;-83
2023/04/23 00:27:19;;;;;;;8.80;6.00;;;;;;;9.78;53.58;96351.49;109138;1266;31229;-84
2023/04/23 00:29:53;;;;;;;10.20;7.20;;;;;;;9.84;53.31;96351.17;109219;1266;22520;-83
2023/04/23 00:32:24;;;;;;;9.50;7.00;;;;;;;9.93;52.85;96350.08;109268;1272;22514;-84
2023/04/23 00:34:57;;;;;;;9.50;6.30;;;;;;;10.06;52.41;96349.05;109214;1269;23945;-83
2023/04/23 00:37:28;;;;;;;11.60;6.60;;;;;;;10.14;52.27;96351.09;109189;1269;39747;-84
2023/04/23 00:39:59;;;;;;;9.30;6.90;;;;;;;10.07;52.37;96349.67;109221;1265;22575;-84
2023/04/23 00:42:32;;;;;;;10.00;6.80;;;;;;;10.04;52.31;96352.94;109191;1266;24578;-84
2023/04/23 00:45:07;;;;;;;11.70;6.70;;;;;;;10.09;52.02;96349.53;109251;1272;22535;-83
2023/04/23 00:47:40;;;;;;;9.80;6.20;;;;;;;10.17;52.15;96351.05;109242;1267;22524;-84
2023/04/23 00:50:12;;;;;;;11.90;7.50;;;;;;;10.10;52.03;96352.27;109119;1272;22530;-84
2023/04/23 00:52:45;;;;;;;10.80;7.20;;;;;;;10.08;51.92;96348.17;109227;1266;22631;-84
2023/04/23 00:55:19;;;;;;;8.70;6.30;;;;;;;10.05;51.99;96348.11;109218;1272;23800;-84
2023/04/23 00:57:53;;;;;;;10.80;6.60;;;;;;;10.04;51.93;96343.73;109161;1272;23528;-84
2023/04/23 01:00:25;;;;;;;9.10;6.20;;;;;;;10.07;51.99;96344.95;109140;1266;22517;-84
2023/04/23 01:02:57;;;;;;;11.40;7.30;;;;;;;10.07;52.00;96344.74;109121;1265;22508;-83
2023/04/23 01:05:28;;;;;;;11.80;6.50;;;;;;;10.06;51.97;96343.05;109115;1266;22515;-83
2023/04/23 01:07:59;;;;;;;9.20;7.30;;;;;;;10.07;51.90;96344.42;109075;1267;78852;-84
2023/04/23 01:10:31;;;;;;;9.50;6.90;;;;;;;10.08;51.90;96341.65;109159;1270;22530;-83
2023/04/23 01:13:02;;;;;;;8.80;6.60;;;;;;;10.06;51.91;96342.00;109100;1269;22524;-84
2023/04/23 01:15:35;;;;;;;9.90;7.10;;;;;;;10.04;51.92;96337.52;109141;1267;22515;-84
2023/04/23 01:18:07;;;;;;;9.10;6.90;;;;;;;10.07;51.81;96342.20;109074;1266;22512;-84
2023/04/23 01:20:38;;;;;;;9.20;6.60;;;;;;;10.04;51.99;96342.45;109128;1273;23872;-83
2023/04/23 01:23:10;;;;;;;10.10;6.60;;;;;;;10.00;52.04;96343.64;109126;1273;22484;-84
2023/04/23 01:25:43;;;;;;;9.50;6.50;;;;;;;9.95;52.03;96341.63;109094;1273;22467;-83
2023/04/23 01:28:17;;;;;;;10.40;6.70;;;;;;;9.87;52.33;96341.66;109096;1273;24902;-83
2023/04/23 01:30:50;;;;;;;11.50;7.20;;;;;;;9.80;52.45;96344.74;109131;1268;22500;-84
2023/04/23 01:33:23;;;;;;;9.80;7.10;;;;;;;9.76;52.60;96341.56;109110;1268;22511;-84
2023/04/23 01:35:55;;;;;;;9.50;6.40;;;;;;;9.79;52.71;96339.88;109162;1273;23303;-84
2023/04/23 01:38:28;;;;;;;11.60;7.60;;;;;;;9.80;52.77;96341.63;109246;1270;23845;-84
2023/04/23 01:41:00;;;;;;;9.70;6.80;;;;;;;9.81;52.81;96341.44;109145;1270;23672;-84
2023/04/23 01:43:33;;;;;;;12.00;6.70;;;;;;;9.85;52.75;96342.26;109305;1269;23421;-84
2023/04/23 01:46:04;;;;;;;10.40;6.60;;;;;;;9.80;52.99;96346.17;109289;1271;23796;-84
2023/04/23 01:48:39;;;;;;;11.00;7.20;;;;;;;9.75;53.18;96345.49;109206;1266;22594;-84
2023/04/23 01:51:10;;;;;;;9.90;7.00;;;;;;;9.66;53.36;96345.30;109200;1266;22547;-84
2023/04/23 01:53:41;;;;;;;10.20;7.00;;;;;;;9.63;53.39;96344.70;109190;1250;23002;-84
2023/04/23 01:56:12;;;;;;;10.50;6.60;;;;;;;9.66;53.58;96346.46;109121;1272;22575;-84
2023/04/23 01:58:46;;;;;;;10.00;6.30;;;;;;;9.66;53.46;96346.56;109198;1265;24250;-84
2023/04/23 02:01:17;;;;;;;10.80;7.40;;;;;;;9.68;53.83;96344.75;109260;1266;25403;-83
2023/04/23 02:03:49;;;;;;;10.30;7.10;;;;;;;9.59;53.88;96347.59;109157;1266;22713;-84
2023/04/23 02:06:20;;;;;;;8.90;6.80;;;;;;;9.56;54.10;96347.38;109191;1272;24889;-84
2023/04/23 02:08:51;;;;;;;9.50;6.60;;;;;;;9.51;54.20;96347.54;109193;1272;22559;-84
2023/04/23 02:11:22;;;;;;;10.50;6.80;;;;;;;9.51;54.44;96349.13;109135;1272;24192;-84
2023/04/23 02:13:55;;;;;;;9.50;6.30;;;;;;;9.48;54.37;96348.89;109261;1266;22547;-84
2023/04/23 02:16:27;;;;;;;9.80;6.90;;;;;;;9.47;54.42;96351.66;109223;1265;22538;-84
2023/04/23 02:19:00;;;;;;;9.90;7.50;;;;;;;9.43;54.63;96348.83;109251;1272;22519;-83
2023/04/23 02:21:32;;;;;;;11.00;7.20;;;;;;;9.41;54.69;96346.23;109262;1269;22882;-84
2023/04/23 02:24:04;;;;;;;11.00;7.30;;;;;;;9.41;54.77;96342.53;109281;1272;22522;-83
2023/04/23 02:26:35;;;;;;;9.60;6.40;;;;;;;9.39;54.76;96342.02;109193;1266;22535;-84
2023/04/23 02:29:06;;;;;;;11.20;7.50;;;;;;;9.37;54.78;96342.46;109176;1272;22507;-83
2023/04/23 02:31:37;;;;;;;10.20;7.30;;;;;;;9.35;55.01;96339.20;109274;1265;22511;-84
2023/04/23 02:34:07;;;;;;;9.60;7.00;;;;;;;9.32;55.03;96338.39;109263;1272;22767;-84
2023/04/23 02:36:38;;;;;;;10.90;6.90;;;;;;;9.31;55.19;96339.19;109319;1269;22559;-84
2023/04/23 02:39:09;;;;;;;9.00;6.60;;;;;;;9.29;55.27;96340.14;109250;1272;22523;-84
2023/04/23 02:41:40;;;;;;;9.10;6.90;;;;;;;9.31;55.13;96343.42;109184;1270;22514;-84
2023/04/23 02:44:11;;;;;;;10.30;7.10;;;;;;;9.33;55.21;96344.52;109286;1272;22514;-84
2023/04/23 02:46:42;;;;;;;11.30;7.60;;;;;;;9.32;55.26;96339.70;109201;1264;25314;-84
2023/04/23 02:49:13;;;;;;;12.00;7.40;;;;;;;9.34;55.42;96340.11;109225;1269;23727;-84
2023/04/23 02:51:44;;;;;;;11.30;7.20;;;;;;;9.33;55.39;96341.91;109261;1272;22517;-84
2023/04/23 02:54:15;;;;;;;11.00;7.10;;;;;;;9.31;55.29;96340.73;109146;1273;23174;-84
2023/04/23 02:56:46;;;;;;;9.90;6.70;;;;;;;9.29;55.42;96343.95;109178;1266;24502;-84
2023/04/23 02:59:17;;;;;;;11.80;7.00;;;;;;;9.28;55.46;96345.48;109266;1272;25060;-84
2023/04/23 03:01:47;;;;;;;8.70;6.40;;;;;;;9.31;55.49;96340.36;109285;1265;25217;-84
2023/04/23 03:04:19;;;;;;;12.60;7.10;;;;;;;9.34;55.58;96347.15;109206;1272;24199;-84
2023/04/23 03:06:50;;;;;;;9.80;7.00;;;;;;;9.33;55.53;96343.88;109232;1266;24356;-83
2023/04/23 03:09:20;;;;;;;9.80;7.30;;;;;;;9.36;55.71;96340.09;109213;1272;22511;-84
2023/04/23 03:11:51;;;;;;;9.90;7.10;;;;;;;9.43;55.78;96340.78;109122;1265;25436;-81
2023/04/23 03:14:22;;;;;;;10.30;6.90;;;;;;;9.40;55.84;96342.06;109257;1272;24208;-84
2023/04/23 03:16:53;;;;;;;9.90;6.90;;;;;;;9.34;55.86;96342.49;109229;1266;23260;-84
2023/04/23 03:19:24;;;;;;;10.50;7.50;;;;;;;9.34;55.86;96340.69;109146;1272;22555;-84
2023/04/23 03:21:55;;;;;;;9.90;6.90;;;;;;;9.39;55.94;96340.43;109155;1272;23716;-83
2023/04/23 03:24:26;;;;;;;11.00;6.70;;;;;;;9.36;56.10;96343.42;109101;1257;22524;-83
2023/04/23 03:26:57;;;;;;;10.20;7.00;;;;;;;9.39;56.09;96341.91;109117;1272;24180;-83
2023/04/23 03:29:30;;;;;;;9.80;7.10;;;;;;;9.47;56.16;96341.97;109290;1272;22547;-84
2023/04/23 03:32:01;;;;;;;9.40;5.90;;;;;;;9.49;56.00;96346.34;109184;1260;22529;-84
2023/04/23 03:34:32;;;;;;;10.00;7.20;;;;;;;9.47;55.99;96342.87;109138;1273;22623;-83
2023/04/23 03:37:03;;;;;;;11.10;6.40;;;;;;;9.48;56.00;96342.16;109152;1272;25444;-83
2023/04/23 03:39:33;;;;;;;11.00;6.80;;;;;;;9.49;56.05;96343.05;109121;1272;22529;-83
2023/04/23 03:42:05;;;;;;;11.60;6.70;;;;;;;9.44;56.08;96342.48;109222;1265;23237;-83
2023/04/23 03:44:39;;;;;;;9.90;7.10;;;;;;;9.40;56.19;96341.42;109197;1271;22511;-83
2023/04/23 03:47:09;;;;;;;11.10;6.80;;;;;;;9.41;56.24;96343.38;109246;1266;22546;-83
2023/04/23 03:49:41;;;;;;;11.60;7.30;;;;;;;9.44;56.27;96343.10;109193;1272;22510;-84
2023/04/23 03:52:11;;;;;;;8.90;6.80;;;;;;;9.46;56.31;96342.77;109297;1272;25418;-83
2023/04/23 03:54:42;;;;;;;10.70;6.60;;;;;;;9.44;56.40;96343.06;109298;1272;22564;-83
2023/04/23 03:57:14;;;;;;;9.80;6.50;;;;;;;9.46;56.55;96348.22;109245;1272;23256;-83
2023/04/23 03:59:44;;;;;;;9.70;6.50;;;;;;;9.46;56.71;96343.04;109145;1272;22605;-83
2023/04/23 04:02:15;;;;;;;9.40;6.20;;;;;;;9.48;56.77;96342.22;109113;1273;23967;-83
2023/04/23 04:04:48;;;;;;;9.10;6.20;;;;;;;9.54;56.93;96346.77;109252;1251;22504;-83
2023/04/23 04:07:19;;;;;;;7.80;5.90;;;;;;;9.64;56.83;96341.56;109293;1272;22516;-83
2023/04/23 04:09:50;;;;;;;9.10;5.80;;;;;;;9.79;56.69;96344.23;109127;1266;22530;-83
2023/04/23 04:12:23;;;;;;;11.20;6.20;;;;;;;9.96;56.34;96340.63;109290;1272;22558;-84
2023/04/23 04:14:54;;;;;;;8.50;5.00;;;;;;;10.06;55.97;96340.77;109209;1269;22554;-83
2023/04/23 04:17:25;;;;;;;9.60;6.40;;;;;;;10.18;55.73;96341.41;109198;1272;23673;-83
2023/04/23 04:19:56;;;;;;;8.90;6.00;;;;;;;10.27;55.54;96342.08;109207;1266;22514;-83
2023/04/23 04:22:29;;;;;;;9.40;5.70;;;;;;;10.38;55.49;96343.64;109107;1273;23723;-84
2023/04/23 04:25:00;;;;;;;8.40;5.70;;;;;;;10.50;55.34;96341.74;109243;1270;22531;-83
2023/04/23 04:27:32;;;;;;;7.20;5.70;;;;;;;10.76;54.62;96333.88;109227;1266;22516;-83
2023/04/23 04:30:04;;;;;;;9.30;6.60;;;;;;;11.53;53.40;96337.73;109175;1272;22525;-83
2023/04/23 04:32:37;;;;;;;7.60;5.80;;;;;;;12.41;52.16;96337.67;109257;1272;23736;-83
2023/04/23 04:35:09;;;;;;;8.00;6.30;;;;;;;12.94;50.25;96335.04;109179;1272;22609;-83
2023/04/23 04:37:43;;;;;;;8.60;5.80;;;;;;;13.32;49.32;96344.45;109159;1272;22517;-83
2023/04/23 04:40:15;;;;;;;13.90;6.90;;;;;;;13.71;48.73;96344.96;109265;1269;22503;-84
2023/04/23 04:42:46;;;;;;;8.40;5.60;;;;;;;14.23;47.82;96345.58;109198;1266;22555;-84
2023/04/23 04:45:17;;;;;;;8.30;5.90;;;;;;;14.61;47.06;96348.23;109198;1272;22510;-84
2023/04/23 04:47:48;;;;;;;9.60;6.20;;;;;;;15.07;46.22;96342.48;109218;1272;22512;-84
2023/04/23 04:50:22;;;;;;;9.90;6.30;;;;;;;15.44;45.07;96346.48;109262;1266;22518;-83
2023/04/23 04:52:53;;;;;;;10.10;6.10;;;;;;;15.90;44.70;96345.55;109181;1265;22696;-84
2023/04/23 04:55:24;;;;;;;8.20;6.30;;;;;;;16.20;43.51;96343.76;109243;1251;22616;-84
2023/04/23 04:57:55;;;;;;;7.10;6.10;;;;;;;16.46;43.45;96349.62;109234;1260;27486;-84
2023/04/23 05:00:28;;;;;;;9.00;6.50;;;;;;;16.72;41.97;96344.26;109175;1271;22546;-84
2023/04/23 05:03:00;;;;;;;11.40;5.90;;;;;;;16.73;41.63;96348.48;109162;1265;22513;-84
2023/04/23 05:05:32;;;;;;;10.30;6.40;;;;;;;16.82;41.29;96348.02;109215;1269;22516;-83
2023/04/23 05:08:03;;;;;;;9.20;5.80;;;;;;;17.09;41.28;96345.73;109172;1272;22634;-84
2023/04/23 05:10:34;;;;;;;6.80;5.90;;;;;;;17.32;40.26;96341.21;109281;1272;22564;-84
2023/04/23 05:13:06;;;;;;;9.70;6.30;;;;;;;17.62;40.51;96343.67;109135;1271;25303;-84
2023/04/23 05:15:37;;;;;;;7.70;5.80;;;;;;;17.99;39.84;96337.07;109178;1265;22485;-84
2023/04/23 05:18:11;;;;;;;8.30;6.30;;;;;;;18.30;38.88;96341.09;109124;1266;22514;-84
2023/04/23 05:20:42;;;;;;;7.30;5.90;;;;;;;18.41;38.46;96335.48;109196;1266;24235;-84
2023/04/23 05:23:13;;;;;;;8.10;6.00;;;;;;;18.70;37.88;96337.77;109146;1272;22540;-84
2023/04/23 05:25:44;;;;;;;7.10;5.30;;;;;;;19.12;38.28;96338.42;109244;1266;22526;-84
2023/04/23 05:28:15;;;;;;;7.40;5.90;;;;;;;19.87;37.76;96336.71;109174;1272;23740;-84
2023/04/23 05:30:46;;;;;;;7.50;5.50;;;;;;;20.40;36.81;96336.11;109045;1272;131923;-84
2023/04/23 05:33:18;;;;;;;8.40;6.00;;;;;;;20.83;35.84;96332.84;109162;1266;22519;-84
2023/04/23 05:35:49;;;;;;;6.90;5.20;;;;;;;21.07;35.42;96331.21;109246;1266;25414;-84
2023/04/23 05:38:20;;;;;;;7.30;5.10;;;;;;;20.98;35.09;96332.94;109124;1266;22518;-84
2023/04/23 05:40:51;;;;;;;9.50;5.70;;;;;;;21.24;34.49;96330.84;109272;1272;23826;-84
2023/04/23 05:43:22;;;;;;;6.40;5.00;;;;;;;21.28;34.18;96330.62;109143;1271;22552;-84
2023/04/23 05:45:55;;;;;;;7.50;5.50;;;;;;;20.54;33.86;96330.98;109211;1272;22522;-84
2023/04/23 05:48:26;;;;;;;6.30;5.00;;;;;;;19.16;35.44;96336.54;109063;1274;22582;-84
2023/04/23 05:50:58;;;;;;;7.40;5.90;;;;;;;18.08;36.64;96333.68;109081;1273;22529;-84
2023/04/23 05:53:29;;;;;;;9.00;5.90;;;;;;;17.40;38.19;96335.45;109148;1269;23814;-84
2023/04/23 05:56:01;;;;;;;6.90;5.70;;;;;;;17.61;38.88;96334.96;109127;1267;22539;-85
2023/04/23 05:58:32;;;;;;;7.10;5.30;;;;;;;18.70;38.44;96340.39;109108;1267;25426;-86
2023/04/23 06:01:03;;;;;;;8.50;5.80;;;;;;;20.24;37.16;96339.33;109098;1267;22549;-84
2023/04/23 06:03:35;;;;;;;8.00;5.20;;;;;;;21.45;35.15;96337.26;109133;1267;22566;-85
2023/04/23 06:06:07;;;;;;;8.20;5.90;;;;;;;21.65;33.76;96336.98;109075;1251;23049;-86
2023/04/23 06:08:38;;;;;;;6.70;5.00;;;;;;;20.54;34.03;96336.36;109153;1273;22611;-84
2023/04/23 06:11:09;;;;;;;8.30;6.30;;;;;;;19.14;35.70;96344.39;109091;1271;22626;-84
2023/04/23 06:13:42;;;;;;;6.80;5.20;;;;;;;18.59;36.72;96351.76;109278;1269;22539;-85
2023/04/23 06:16:15;;;;;;;8.90;5.90;;;;;;;18.30;37.50;96349.98;109044;1266;33479;-85
2023/04/23 06:18:46;;;;;;;7.00;5.40;;;;;;;19.59;37.60;96344.89;109111;1269;22550;-84
2023/04/23 06:21:19;;;;;;;6.80;5.30;;;;;;;21.34;36.07;96346.39;109067;1273;24370;-85
2023/04/23 06:23:51;;;;;;;8.90;5.40;;;;;;;22.91;34.68;96343.61;109198;1266;22555;-85
2023/04/23 06:26:22;;;;;;;6.00;5.20;;;;;;;23.98;32.79;96349.48;109080;1266;24190;-85
2023/04/23 06:28:53;;;;;;;6.80;5.20;;;;;;;24.45;31.88;96343.75;109087;1274;24222;-85
2023/04/23 06:31:28;;;;;;;7.20;5.20;;;;;;;24.76;30.73;96345.55;109104;1273;24208;-85
2023/04/23 06:34:00;;;;;;;6.40;4.70;;;;;;;24.73;30.20;96345.37;109105;1267;24518;-85
2023/04/23 06:36:31;;;;;;;7.30;5.20;;;;;;;24.54;30.04;96342.45;109105;1272;26355;-85
2023/04/23 06:39:02;;;;;;;5.60;5.00;;;;;;;24.80;30.31;96344.95;109096;1273;22652;-85
2023/04/23 06:41:33;;;;;;;6.20;5.10;;;;;;;25.45;29.74;96343.58;109168;1271;24234;-85
2023/04/23 06:44:05;;;;;;;9.50;5.10;;;;;;;26.30;29.39;96345.33;109122;1273;22573;-81
2023/04/23 06:46:37;;;;;;;5.90;4.60;;;;;;;27.04;27.98;96346.58;109072;1270;23802;-83
2023/04/23 06:49:09;;;;;;;4.90;4.40;;;;;;;27.43;27.42;96342.67;109137;1267;25967;-87
2023/04/23 06:51:40;;;;;;;6.20;4.40;;;;;;;27.97;26.91;96342.23;109152;1273;23252;-82
2023/04/23 06:54:14;;;;;;;7.20;4.30;;;;;;;28.56;26.71;96344.04;109200;1271;23725;-82
2023/04/23 06:56:46;;;;;;;4.30;3.90;;;;;;;28.84;25.52;96340.16;109150;1266;22654;-82
2023/04/23 06:59:18;;;;;;;5.90;4.50;;;;;;;28.59;25.12;96338.25;109130;1267;24181;-86
2023/04/23 07:01:51;;;;;;;6.60;4.40;;;;;;;28.88;25.74;96336.77;109111;1273;25415;-82
2023/04/23 07:04:22;;;;;;;5.00;4.50;;;;;;;29.40;25.23;96330.78;109134;1266;22543;-82
2023/04/23 07:06:53;;;;;;;5.30;3.90;;;;;;;29.69;24.80;96332.64;109131;1269;23784;-82
2023/04/23 07:09:25;;;;;;;4.60;4.10;;;;;;;30.08;24.14;96331.82;109090;1267;25272;-82
2023/04/23 07:11:57;;;;;;;4.50;4.00;;;;;;;30.65;24.30;96332.61;109133;1273;22542;-84
2023/04/23 07:14:30;;;;;;;4.80;4.30;;;;;;;30.86;23.41;96334.08;109138;1266;22530;-84
2023/04/23 07:17:02;;;;;;;5.40;4.10;;;;;;;30.88;23.64;96329.66;109070;1267;26221;-87
2023/04/23 07:19:33;;;;;;;5.50;4.10;;;;;;;30.97;23.83;96330.12;109132;1255;22667;-85
2023/04/23 07:22:05;;;;;;;5.70;4.20;;;;;;;31.25;23.34;96335.65;109135;1274;25492;-83
2023/04/23 07:24:37;;;;;;;5.20;3.80;;;;;;;31.47;23.56;96329.52;109071;1272;22554;-85
2023/04/23 07:27:09;;;;;;;5.10;4.10;;;;;;;31.80;22.90;96332.93;109081;1269;22522;-86
2023/04/23 07:29:40;;;;;;;4.70;3.70;;;;;;;32.11;22.90;96331.16;109093;1269;23108;-86
2023/04/23 07:32:12;;;;;;;4.30;3.70;;;;;;;32.70;22.76;96334.91;109128;1275;23171;-86
2023/04/23 07:34:43;;;;;;;4.90;3.60;;;;;;;33.28;22.06;96333.19;109151;1274;22531;-86
2023/04/23 07:37:14;;;;;;;6.10;4.10;;;;;;;33.47;21.64;96326.56;109092;1272;22515;-86
2023/04/23 07:39:47;;;;;;;5.70;3.30;;;;;;;33.60;21.45;96329.41;109162;1272;22569;-86
2023/04/23 07:42:19;;;;;;;6.40;3.60;;;;;;;32.95;20.91;96333.02;109137;1273;22514;-86
2023/04/23 07:44:50;;;;;;;6.50;3.80;;;;;;;33.14;21.24;96329.16;109120;1272;23829;-86
2023/04/23 07:47:21;;;;;;;4.10;3.70;;;;;;;33.01;21.07;96328.24;109050;1273;22520;-86
2023/04/23 07:49:52;;;;;;;4.50;3.50;;;;;;;33.20;21.63;96327.34;109107;1271;22526;-86
2023/04/23 07:52:23;;;;;;;5.90;3.70;;;;;;;32.95;20.66;96327.27;109092;1270;22636;-86
2023/04/23 07:54:55;;;;;;;5.00;3.70;;;;;;;32.35;20.24;96333.45;109154;1262;22555;-86
2023/04/23 07:57:27;;;;;;;4.80;3.40;;;;;;;31.86;20.41;96328.89;109070;1274;22543;-86
2023/04/23 07:59:58;;;;;;;4.50;3.90;;;;;;;32.36;21.34;96324.86;109073;1274;24492;-86
2023/04/23 08:02:29;;;;;;;5.00;3.30;;;;;;;33.13;20.52;96322.61;109127;1275;23798;-86
2023/04/23 08:05:02;;;;;;;5.10;3.40;;;;;;;32.85;19.78;96325.48;109066;1274;22525;-86
2023/04/23 08:07:33;;;;;;;3.50;3.20;;;;;;;32.97;20.08;96325.47;109086;1271;22523;-86
2023/04/23 08:10:10;;;;;;;3.70;3.00;;;;;;;33.14;20.31;96323.77;109144;1269;22497;-86
2023/04/23 08:12:41;;;;;;;4.00;3.50;;;;;;;32.39;19.13;96321.42;109133;1273;22554;-86
2023/04/23 08:15:13;;;;;;;5.20;3.60;;;;;;;30.86;19.37;96314.02;109100;1273;22507;-86
2023/04/23 08:17:45;;;;;;;4.60;3.30;;;;;;;29.75;20.13;96315.14;109101;1274;22524;-80
2023/04/23 08:20:16;;;;;;;3.80;3.40;;;;;;;28.73;21.05;96308.83;109059;1268;22825;-82
2023/04/23 08:22:49;;;;;;;3.60;3.10;;;;;;;28.31;21.61;96313.92;109029;1274;22510;-82
2023/04/23 08:25:20;;;;;;;3.80;3.40;;;;;;;28.43;21.94;96314.77;109085;1267;23025;-81
2023/04/23 08:27:51;;;;;;;3.80;3.20;;;;;;;29.02;21.73;96313.55;109066;1274;23230;-81
2023/04/23 08:30:23;;;;;;;4.80;3.30;;;;;;;29.89;21.66;96308.64;109067;1255;22717;-83
2023/04/23 08:32:54;;;;;;;4.80;3.50;;;;;;;30.30;20.78;96304.06;109104;1274;22550;-83
2023/04/23 08:35:26;;;;;;;4.80;3.50;;;;;;;29.97;20.44;96302.52;109104;1269;22624;-82
2023/04/23 08:37:57;;;;;;;3.70;3.40;;;;;;;29.65;20.94;96299.45;109053;1275;25256;-82
2023/04/23 08:40:32;;;;;;;3.90;3.30;;;;;;;30.77;21.14;96294.77;109089;1274;25421;-82
2023/04/23 08:43:10;;;;;;;3.50;3.10;;;;;;;31.27;19.44;96292.96;109100;1272;22518;-83
2023/04/23 08:45:43;;;;;;;4.40;2.90;;;;;;;30.51;19.40;96285.15;109175;1267;22554;-82
2023/04/23 08:48:16;;;;;;;4.60;3.30;;;;;;;29.87;19.29;96281.23;109114;1269;28085;-83
2023/04/23 08:50:48;;;;;;;4.60;3.10;;;;;;;28.90;20.63;96285.91;109079;1274;22562;-82
2023/04/23 08:53:26;;;;;;;6.50;4.10;;;;;;;29.21;21.12;96283.47;109136;1275;22520;-83
2023/04/23 08:55:59;;;;;;;5.20;3.20;;;;;;;29.26;20.34;96276.79;109097;1272;22552;-84
2023/04/23 08:58:31;;;;;;;5.00;3.60;;;;;;;28.91;20.78;96278.73;109164;1273;22515;-84
2023/04/23 09:01:03;;;;;;;3.70;3.00;;;;;;;28.88;21.09;96271.59;109167;1274;23359;-83
2023/04/23 09:03:35;;;;;;;5.60;3.40;;;;;;;28.91;21.25;96272.55;109082;1272;22523;-83
2023/04/23 09:06:07;;;;;;;4.70;3.30;;;;;;;28.77;21.05;96269.43;109104;1274;22595;-86
2023/04/23 09:08:38;;;;;;;5.40;3.50;;;;;;;27.98;20.17;96265.05;109050;1272;23746;-82
2023/04/23 09:11:10;;;;;;;4.40;3.40;;;;;;;26.71;21.60;96269.75;109099;1274;23497;-82
2023/04/23 09:13:42;;;;;;;8.40;3.80;;;;;;;26.75;22.24;96269.59;109040;1269;22509;-83
2023/04/23 09:16:13;;;;;;;6.10;3.40;;;;;;;26.77;22.19;96269.90;109023;1274;23800;-83
2023/04/23 09:18:44;;;;;;;8.50;3.40;;;;;;;26.55;21.94;96264.66;109083;1267;22519;-82
2023/04/23 09:21:16;;;;;;;7.30;4.00;;;;;;;26.47;22.42;96261.23;109179;1269;22650;-83
2023/04/23 09:23:52;;;;;;;5.60;3.80;;;;;;;24.70;23.20;96259.76;109092;1271;22528;-83
2023/04/23 09:26:24;;;;;;;5.00;3.60;;;;;;;23.04;25.04;96273.67;109070;1272;22518;-82
2023/04/23 09:28:55;;;;;;;4.60;3.60;;;;;;;22.90;25.87;96264.38;109111;1269;24271;-81
2023/04/23 09:31:26;;;;;;;4.70;3.80;;;;;;;22.51;24.98;96269.88;109155;1269;22518;-83
2023/04/23 09:33:58;;;;;;;4.90;3.30;;;;;;;22.31;25.95;96262.11;109144;1274;22575;-81
2023/04/23 09:36:35;;;;;;;5.60;3.80;;;;;;;22.08;26.73;96261.42;109088;1271;22527;-82
2023/04/23 09:39:14;;;;;;;5.20;3.30;;;;;;;21.72;26.51;96258.55;109140;1267;25415;-83
2023/04/23 09:41:45;;;;;;;4.70;3.40;;;;;;;21.50;26.97;96251.45;109151;1269;22597;-83
2023/04/23 09:44:22;;;;;;;5.60;3.90;;;;;;;21.28;27.45;96251.66;109059;1269;23829;-83
2023/04/23 09:46:53;;;;;;;5.40;3.50;;;;;;;21.21;27.93;96249.85;109278;1269;22513;-84
2023/04/23 09:49:24;;;;;;;6.30;4.10;;;;;;;21.03;28.41;96249.57;109103;1268;23801;-84
2023/04/23 09:52:05;;;;;;;4.40;3.50;;;;;;;21.06;28.31;96252.34;109099;1271;22965;-83
2023/04/23 09:54:37;;;;;;;6.60;3.30;;;;;;;21.17;28.51;96247.86;109103;1275;22569;-84
2023/04/23 09:57:11;;;;;;;4.70;3.20;;;;;;;21.21;28.29;96253.71;109050;1269;22577;-85
2023/04/23 09:59:42;;;;;;;5.00;3.50;;;;;;;21.24;28.13;96253.23;109123;1272;22515;-84
2023/04/23 10:02:14;;;;;;;5.40;3.20;;;;;;;21.20;27.63;96250.31;109123;1275;22525;-84
2023/04/23 10:04:50;;;;;;;6.20;3.40;;;;;;;21.31;27.64;96244.38;109096;1274;22538;-86
2023/04/23 10:07:22;;;;;;;4.50;3.40;;;;;;;21.57;27.21;96234.08;109083;1272;25582;-80
2023/04/23 10:09:54;;;;;;;6.60;3.40;;;;;;;21.50;27.69;96237.05;109137;1272;22585;-85
2023/04/23 10:12:27;;;;;;;3.90;3.20;;;;;;;21.77;27.67;96234.13;109073;1275;23177;-84
2023/04/23 10:14:59;;;;;;;3.80;3.20;;;;;;;21.86;27.65;96228.73;109087;1269;23534;-85
2023/04/23 10:17:32;;;;;;;6.10;3.50;;;;;;;21.76;27.53;96223.71;109064;1275;22736;-86
2023/04/23 10:20:11;;;;;;;4.30;3.60;;;;;;;21.41;27.24;96216.54;109320;1275;22515;-89
2023/04/23 10:22:45;;;;;;;6.50;3.70;;;;;;;21.07;27.87;96211.77;109784;1270;25221;-83
2023/04/23 10:25:19;;;;;;;5.00;3.50;;;;;;;21.24;28.58;96214.80;109306;1267;25236;-83
2023/04/23 10:27:52;;;;;;;7.90;4.00;;;;;;;21.50;28.15;96216.06;109082;1274;23286;-81
2023/04/23 10:30:23;;;;;;;6.60;3.30;;;;;;;21.41;28.27;96217.75;109102;1273;22522;-85
2023/04/23 10:32:56;;;;;;;5.50;3.20;;;;;;;21.29;28.19;96217.46;109121;1272;22583;-85
2023/04/23 10:35:28;;;;;;;4.20;3.30;;;;;;;21.26;28.63;96216.26;109133;1272;22715;-85
2023/04/23 10:38:02;;;;;;;5.60;3.60;;;;;;;21.27;28.79;96207.73;109231;1275;22553;-85
2023/04/23 10:40:37;;;;;;;4.80;3.30;;;;;;;21.39;28.68;96208.09;109235;1274;23482;-85
2023/04/23 10:43:09;;;;;;;4.90;3.60;;;;;;;21.38;28.30;96199.98;109142;1271;23846;-84
2023/04/23 10:45:41;;;;;;;4.80;3.30;;;;;;;21.36;28.26;96206.17;109200;1274;22521;-84
2023/04/23 10:48:12;;;;;;;6.90;3.80;;;;;;;21.65;28.42;96198.60;109040;1275;25940;-84
2023/04/23 10:50:45;;;;;;;5.20;3.80;;;;;;;21.88;28.09;96197.46;109098;1275;23811;-84
2023/04/23 10:53:22;;;;;;;5.90;3.40;;;;;;;21.78;28.00;96188.48;109120;1274;24187;-85
2023/04/23 10:56:08;;;;;;;4.50;3.20;;;;;;;21.74;28.34;96187.27;109054;1274;25409;-85
2023/04/23 10:58:51;;;;;;;6.10;3.50;;;;;;;21.76;28.21;96194.08;109080;1273;22526;-85
2023/04/23 11:01:26;;;;;;;5.70;3.90;;;;;;;21.77;28.30;96196.33;109136;1266;22522;-85
2023/04/23 11:03:58;;;;;;;4.40;3.30;;;;;;;21.72;27.97;96198.21;109107;1273;22640;-84
2023/04/23 11:06:55;;;;;;;5.80;3.60;;;;;;;21.56;27.74;96207.93;109056;1272;25226;-85
2023/04/23 11:09:36;;;;;;;4.10;3.20;;;;;;;21.58;27.72;96199.58;109096;1273;23257;-84
2023/04/23 11:12:14;;;;;;;3.90;3.50;;;;;;;21.67;27.83;96196.34;109124;1273;22539;-84
2023/04/23 11:14:49;;;;;;;4.10;3.10;;;;;;;21.76;28.10;96197.48;109101;1266;25269;-84
2023/04/23 11:17:24;;;;;;;5.50;4.00;;;;;;;21.87;27.87;96196.83;109036;1274;25233;-85
2023/04/23 11:20:13;;;;;;;4.50;3.40;;;;;;;22.01;27.86;96200.83;109074;1263;22586;-85
2023/04/23 11:22:47;;;;;;;4.90;3.10;;;;;;;21.93;26.74;96192.29;109044;1274;22518;-85
2023/04/23 11:25:22;;;;;;;3.60;3.00;;;;;;;21.77;27.50;96187.86;109094;1273;23807;-85
2023/04/23 11:27:57;;;;;;;4.90;3.70;;;;;;;21.52;27.60;96179.35;109063;1265;22559;-85
2023/04/23 11:30:30;;;;;;;4.70;3.70;;;;;;;21.74;28.25;96177.55;109115;1267;22516;-85
2023/04/23 11:33:03;;;;;;;4.90;3.40;;;;;;;21.78;28.23;96172.00;109166;1274;23191;-84
2023/04/23 11:35:39;;;;;;;4.70;3.20;;;;;;;21.95;27.89;96172.50;109074;1274;22567;-84
2023/04/23 11:38:11;;;;;;;3.90;3.30;;;;;;;21.83;28.32;96165.37;109061;1274;22553;-85
2023/04/23 11:40:47;;;;;;;4.70;3.20;;;;;;;21.84;29.14;96161.15;109063;1274;22519;-83
2023/04/23 11:43:22;;;;;;;4.00;3.60;;;;;;;21.75;28.28;96164.55;109085;1274;24230;-83
2023/04/23 11:45:55;;;;;;;5.40;3.80;;;;;;;21.91;29.31;96161.33;109056;1275;22532;-83
2023/04/23 11:48:28;;;;;;;4.80;3.50;;;;;;;22.20;29.09;96157.55;109081;1274;22553;-84
2023/04/23 11:51:00;;;;;;;5.70;3.30;;;;;;;22.35;27.97;96162.23;109132;1274;24212;-83